sensor_id;sensor_type;location;lat;lon;timestamp;temperature;humidity
1225;DHT22;602;48.000;7.840;2023-03-20T00:00:27;10.80;99.90
1225;DHT22;602;48.000;7.840;2023-03-20T00:02:55;10.80;99.90
1225;DHT22;602;48.000;7.840;2023-03-20T00:05:23;10.60;99.90
1225;DHT22;602;48.000;7.840;2023-03-20T00:07:50;10.70;99.90
1225;DHT22;602;48.000;7.840;2023-03-20T00:10:18;10.70;99.90
1225;DHT22;602;48.000;7.840;2023-03-20T00:12:47;10.80;99.90
1225;DHT22;602;48.000;7.840;2023-03-20T00:15:28;10.70;99.90
1225;DHT22;602;48.000;7.840;2023-03-20T00:17:55;10.70;99.90
1225;DHT22;602;48.000;7.840;2023-03-20T00:20:23;10.70;99.90
1225;DHT22;602;48.000;7.840;2023-03-20T00:22:50;10.70;99.90
1225;DHT22;602;48.000;7.840;2023-03-20T00:25:19;10.60;99.90
1225;DHT22;602;48.000;7.840;2023-03-20T00:27:47;10.60;99.90
1225;DHT22;602;48.000;7.840;2023-03-20T00:30:27;10.60;99.90
1225;DHT22;602;48.000;7.840;2023-03-20T00:32:56;10.60;99.90
1225;DHT22;602;48.000;7.840;2023-03-20T00:35:26;10.60;99.90
1225;DHT22;602;48.000;7.840;2023-03-20T00:37:54;10.50;99.90
1225;DHT22;602;48.000;7.840;2023-03-20T00:40:22;10.50;99.90
1225;DHT22;602;48.000;7.840;2023-03-20T00:42:57;10.50;99.90
1225;DHT22;602;48.000;7.840;2023-03-20T00:45:26;10.50;99.90
1225;DHT22;602;48.000;7.840;2023-03-20T00:47:54;10.50;99.90
1225;DHT22;602;48.000;7.840;2023-03-20T00:50:24;10.60;99.90
1225;DHT22;602;48.000;7.840;2023-03-20T00:52:53;10.60;99.90
1225;DHT22;602;48.000;7.840;2023-03-20T00:55:22;10.60;99.90
1225;DHT22;602;48.000;7.840;2023-03-20T00:57:52;10.70;99.90
1225;DHT22;602;48.000;7.840;2023-03-20T01:00:28;10.70;99.90
1225;DHT22;602;48.000;7.840;2023-03-20T01:02:57;10.60;99.90
1225;DHT22;602;48.000;7.840;2023-03-20T01:05:25;10.60;99.90
1225;DHT22;602;48.000;7.840;2023-03-20T01:07:53;10.60;99.90
1225;DHT22;602;48.000;7.840;2023-03-20T01:10:20;10.60;99.90
1225;DHT22;602;48.000;7.840;2023-03-20T01:12:48;10.60;99.90
1225;DHT22;602;48.000;7.840;2023-03-20T01:15:18;10.60;99.90
1225;DHT22;602;48.000;7.840;2023-03-20T01:17:47;10.60;99.90
1225;DHT22;602;48.000;7.840;2023-03-20T01:20:16;10.60;99.90
1225;DHT22;602;48.000;7.840;2023-03-20T01:22:43;10.60;99.90
1225;DHT22;602;48.000;7.840;2023-03-20T01:25:10;10.60;99.90
1225;DHT22;602;48.000;7.840;2023-03-20T01:27:37;10.70;99.90
1225;DHT22;602;48.000;7.840;2023-03-20T01:30:18;10.60;99.90
1225;DHT22;602;48.000;7.840;2023-03-20T01:32:46;10.50;99.90
1225;DHT22;602;48.000;7.840;2023-03-20T01:35:14;10.60;99.90
1225;DHT22;602;48.000;7.840;2023-03-20T01:37:42;10.50;99.90
1225;DHT22;602;48.000;7.840;2023-03-20T01:40:25;10.50;99.90
1225;DHT22;602;48.000;7.840;2023-03-20T01:42:53;10.40;99.90
1225;DHT22;602;48.000;7.840;2023-03-20T01:45:23;10.50;99.90
1225;DHT22;602;48.000;7.840;2023-03-20T01:47:53;10.60;99.90
1225;DHT22;602;48.000;7.840;2023-03-20T01:50:26;10.70;99.90
1225;DHT22;602;48.000;7.840;2023-03-20T01:52:58;10.70;99.90
1225;DHT22;602;48.000;7.840;2023-03-20T01:55:26;10.70;99.90
1225;DHT22;602;48.000;7.840;2023-03-20T01:57:56;10.70;99.90
1225;DHT22;602;48.000;7.840;2023-03-20T02:00:24;10.70;99.90
1225;DHT22;602;48.000;7.840;2023-03-20T02:02:53;10.70;99.90
1225;DHT22;602;48.000;7.840;2023-03-20T02:05:21;10.80;99.90
1225;DHT22;602;48.000;7.840;2023-03-20T02:07:58;10.80;99.90
1225;DHT22;602;48.000;7.840;2023-03-20T02:10:28;10.80;99.90
1225;DHT22;602;48.000;7.840;2023-03-20T02:12:55;10.80;99.90
1225;DHT22;602;48.000;7.840;2023-03-20T02:15:25;10.80;99.90
1225;DHT22;602;48.000;7.840;2023-03-20T02:17:54;10.80;99.90
1225;DHT22;602;48.000;7.840;2023-03-20T02:20:32;10.80;99.90
1225;DHT22;602;48.000;7.840;2023-03-20T02:23:28;10.80;99.90
1225;DHT22;602;48.000;7.840;2023-03-20T02:26:28;10.70;99.90
1225;DHT22;602;48.000;7.840;2023-03-20T02:29:42;10.60;99.90
1225;DHT22;602;48.000;7.840;2023-03-20T02:38:38;10.70;99.90
1225;DHT22;602;48.000;7.840;2023-03-20T02:41:13;10.70;99.90
1225;DHT22;602;48.000;7.840;2023-03-20T02:43:47;10.70;99.90
1225;DHT22;602;48.000;7.840;2023-03-20T02:46:24;10.80;99.90
1225;DHT22;602;48.000;7.840;2023-03-20T02:48:57;10.90;99.90
1225;DHT22;602;48.000;7.840;2023-03-20T02:51:32;10.80;99.90
1225;DHT22;602;48.000;7.840;2023-03-20T02:54:07;10.80;99.90
1225;DHT22;602;48.000;7.840;2023-03-20T02:56:42;10.90;99.90
1225;DHT22;602;48.000;7.840;2023-03-20T02:59:20;10.90;99.90
1225;DHT22;602;48.000;7.840;2023-03-20T03:01:53;11.00;99.90
1225;DHT22;602;48.000;7.840;2023-03-20T03:04:25;11.00;99.90
1225;DHT22;602;48.000;7.840;2023-03-20T03:06:55;11.00;99.90
1225;DHT22;602;48.000;7.840;2023-03-20T03:09:28;10.90;99.90
1225;DHT22;602;48.000;7.840;2023-03-20T03:12:00;10.90;99.90
1225;DHT22;602;48.000;7.840;2023-03-20T03:14:34;11.00;99.90
1225;DHT22;602;48.000;7.840;2023-03-20T03:17:03;11.00;99.90
1225;DHT22;602;48.000;7.840;2023-03-20T03:19:32;11.00;99.90
1225;DHT22;602;48.000;7.840;2023-03-20T03:22:00;10.90;99.90
1225;DHT22;602;48.000;7.840;2023-03-20T03:24:30;10.90;99.90
1225;DHT22;602;48.000;7.840;2023-03-20T03:27:00;10.90;99.90
1225;DHT22;602;48.000;7.840;2023-03-20T03:29:32;10.90;99.90
1225;DHT22;602;48.000;7.840;2023-03-20T03:32:01;10.80;99.90
1225;DHT22;602;48.000;7.840;2023-03-20T03:34:29;10.90;99.90
1225;DHT22;602;48.000;7.840;2023-03-20T03:37:00;10.90;99.90
1225;DHT22;602;48.000;7.840;2023-03-20T03:39:35;10.90;99.90
1225;DHT22;602;48.000;7.840;2023-03-20T03:42:08;10.80;99.90
1225;DHT22;602;48.000;7.840;2023-03-20T03:44:43;10.80;99.90
1225;DHT22;602;48.000;7.840;2023-03-20T03:47:17;10.80;99.90
1225;DHT22;602;48.000;7.840;2023-03-20T03:49:49;10.70;99.90
1225;DHT22;602;48.000;7.840;2023-03-20T03:52:21;10.70;99.90
1225;DHT22;602;48.000;7.840;2023-03-20T03:54:53;10.60;99.90
1225;DHT22;602;48.000;7.840;2023-03-20T03:57:25;10.60;99.90
1225;DHT22;602;48.000;7.840;2023-03-20T03:59:54;10.40;99.90
1225;DHT22;602;48.000;7.840;2023-03-20T04:02:22;10.40;99.90
1225;DHT22;602;48.000;7.840;2023-03-20T04:04:51;10.50;99.90
1225;DHT22;602;48.000;7.840;2023-03-20T04:07:19;10.60;99.90
1225;DHT22;602;48.000;7.840;2023-03-20T04:09:46;10.60;99.90
1225;DHT22;602;48.000;7.840;2023-03-20T04:12:31;10.60;99.90
1225;DHT22;602;48.000;7.840;2023-03-20T04:14:58;10.60;99.90
1225;DHT22;602;48.000;7.840;2023-03-20T04:17:25;10.60;99.90
1225;DHT22;602;48.000;7.840;2023-03-20T04:19:52;10.60;99.90
1225;DHT22;602;48.000;7.840;2023-03-20T04:22:18;10.70;99.90
1225;DHT22;602;48.000;7.840;2023-03-20T04:24:45;10.70;99.90
1225;DHT22;602;48.000;7.840;2023-03-20T04:27:12;10.70;99.90
1225;DHT22;602;48.000;7.840;2023-03-20T04:29:40;10.80;99.90
1225;DHT22;602;48.000;7.840;2023-03-20T04:32:07;10.70;99.90
1225;DHT22;602;48.000;7.840;2023-03-20T04:34:34;10.70;99.90
1225;DHT22;602;48.000;7.840;2023-03-20T04:37:01;10.70;99.90
1225;DHT22;602;48.000;7.840;2023-03-20T04:39:29;10.70;99.90
1225;DHT22;602;48.000;7.840;2023-03-20T04:41:56;10.60;99.90
1225;DHT22;602;48.000;7.840;2023-03-20T04:44:23;10.40;99.90
1225;DHT22;602;48.000;7.840;2023-03-20T04:46:51;10.50;99.90
1225;DHT22;602;48.000;7.840;2023-03-20T04:49:18;10.40;99.90
1225;DHT22;602;48.000;7.840;2023-03-20T04:51:45;10.40;99.90
1225;DHT22;602;48.000;7.840;2023-03-20T04:54:12;10.40;99.90
1225;DHT22;602;48.000;7.840;2023-03-20T04:56:39;10.50;99.90
1225;DHT22;602;48.000;7.840;2023-03-20T04:59:06;10.50;99.90
1225;DHT22;602;48.000;7.840;2023-03-20T05:01:32;10.60;99.90
1225;DHT22;602;48.000;7.840;2023-03-20T05:04:01;10.60;99.90
1225;DHT22;602;48.000;7.840;2023-03-20T05:06:28;10.70;99.90
1225;DHT22;602;48.000;7.840;2023-03-20T05:08:56;10.70;99.90
1225;DHT22;602;48.000;7.840;2023-03-20T05:11:23;10.60;99.90
1225;DHT22;602;48.000;7.840;2023-03-20T05:13:50;10.60;99.90
1225;DHT22;602;48.000;7.840;2023-03-20T05:16:17;10.60;99.90
1225;DHT22;602;48.000;7.840;2023-03-20T05:18:44;10.50;99.90
1225;DHT22;602;48.000;7.840;2023-03-20T05:21:12;10.50;99.90
1225;DHT22;602;48.000;7.840;2023-03-20T05:23:40;10.40;99.90
1225;DHT22;602;48.000;7.840;2023-03-20T05:26:06;10.40;99.90
1225;DHT22;602;48.000;7.840;2023-03-20T05:28:33;10.50;99.90
1225;DHT22;602;48.000;7.840;2023-03-20T05:31:00;10.40;99.90
1225;DHT22;602;48.000;7.840;2023-03-20T05:33:27;10.40;99.90
1225;DHT22;602;48.000;7.840;2023-03-20T05:35:54;10.50;99.90
1225;DHT22;602;48.000;7.840;2023-03-20T05:38:22;10.30;99.90
1225;DHT22;602;48.000;7.840;2023-03-20T05:40:50;10.40;99.90
1225;DHT22;602;48.000;7.840;2023-03-20T05:43:21;10.50;99.90
1225;DHT22;602;48.000;7.840;2023-03-20T05:45:48;10.60;99.90
1225;DHT22;602;48.000;7.840;2023-03-20T05:48:14;10.70;99.90
1225;DHT22;602;48.000;7.840;2023-03-20T05:50:41;10.80;99.90
1225;DHT22;602;48.000;7.840;2023-03-20T05:53:08;10.80;99.90
1225;DHT22;602;48.000;7.840;2023-03-20T05:55:36;10.80;99.90
1225;DHT22;602;48.000;7.840;2023-03-20T05:58:04;10.90;99.90
1225;DHT22;602;48.000;7.840;2023-03-20T06:00:31;10.90;99.90
1225;DHT22;602;48.000;7.840;2023-03-20T06:02:58;10.90;99.90
1225;DHT22;602;48.000;7.840;2023-03-20T06:05:24;10.90;99.90
1225;DHT22;602;48.000;7.840;2023-03-20T06:07:51;10.80;99.90
1225;DHT22;602;48.000;7.840;2023-03-20T06:10:18;10.80;99.90
1225;DHT22;602;48.000;7.840;2023-03-20T06:12:46;10.70;99.90
1225;DHT22;602;48.000;7.840;2023-03-20T06:15:13;10.70;99.90
1225;DHT22;602;48.000;7.840;2023-03-20T06:17:40;10.70;99.90
1225;DHT22;602;48.000;7.840;2023-03-20T06:20:08;10.60;99.90
1225;DHT22;602;48.000;7.840;2023-03-20T06:22:35;10.60;99.90
1225;DHT22;602;48.000;7.840;2023-03-20T06:25:03;10.60;99.90
1225;DHT22;602;48.000;7.840;2023-03-20T06:27:30;10.60;99.90
1225;DHT22;602;48.000;7.840;2023-03-20T06:29:58;10.60;99.90
1225;DHT22;602;48.000;7.840;2023-03-20T06:32:25;10.50;99.90
1225;DHT22;602;48.000;7.840;2023-03-20T06:34:52;10.60;99.90
1225;DHT22;602;48.000;7.840;2023-03-20T06:37:19;10.60;99.90
1225;DHT22;602;48.000;7.840;2023-03-20T06:39:47;10.70;99.90
1225;DHT22;602;48.000;7.840;2023-03-20T06:42:14;10.80;99.90
1225;DHT22;602;48.000;7.840;2023-03-20T06:44:42;10.80;99.90
1225;DHT22;602;48.000;7.840;2023-03-20T06:47:10;10.80;99.90
1225;DHT22;602;48.000;7.840;2023-03-20T06:49:37;10.80;99.90
1225;DHT22;602;48.000;7.840;2023-03-20T06:52:04;10.90;99.90
1225;DHT22;602;48.000;7.840;2023-03-20T06:54:32;10.80;99.90
1225;DHT22;602;48.000;7.840;2023-03-20T06:56:58;10.80;99.90
1225;DHT22;602;48.000;7.840;2023-03-20T06:59:25;10.90;99.90
1225;DHT22;602;48.000;7.840;2023-03-20T07:01:52;11.00;99.90
1225;DHT22;602;48.000;7.840;2023-03-20T07:04:20;11.00;99.90
1225;DHT22;602;48.000;7.840;2023-03-20T07:06:47;11.10;99.90
1225;DHT22;602;48.000;7.840;2023-03-20T07:09:14;11.10;99.90
1225;DHT22;602;48.000;7.840;2023-03-20T07:11:42;11.10;99.90
1225;DHT22;602;48.000;7.840;2023-03-20T07:14:09;11.00;99.90
1225;DHT22;602;48.000;7.840;2023-03-20T07:16:36;11.10;99.90
1225;DHT22;602;48.000;7.840;2023-03-20T07:19:03;11.20;99.90
1225;DHT22;602;48.000;7.840;2023-03-20T07:21:31;11.30;99.90
1225;DHT22;602;48.000;7.840;2023-03-20T07:23:59;11.30;99.90
1225;DHT22;602;48.000;7.840;2023-03-20T07:26:25;11.40;99.90
1225;DHT22;602;48.000;7.840;2023-03-20T07:28:52;11.40;99.90
1225;DHT22;602;48.000;7.840;2023-03-20T07:31:21;11.50;99.90
1225;DHT22;602;48.000;7.840;2023-03-20T07:33:49;11.50;99.90
1225;DHT22;602;48.000;7.840;2023-03-20T07:36:15;11.60;99.90
1225;DHT22;602;48.000;7.840;2023-03-20T07:38:44;11.60;99.90
1225;DHT22;602;48.000;7.840;2023-03-20T07:41:11;11.50;99.90
1225;DHT22;602;48.000;7.840;2023-03-20T07:43:37;11.60;99.90
1225;DHT22;602;48.000;7.840;2023-03-20T07:46:06;11.60;99.90
1225;DHT22;602;48.000;7.840;2023-03-20T07:48:33;11.50;99.90
1225;DHT22;602;48.000;7.840;2023-03-20T07:51:00;11.50;99.90
1225;DHT22;602;48.000;7.840;2023-03-20T07:53:27;11.60;99.90
1225;DHT22;602;48.000;7.840;2023-03-20T07:55:55;11.60;99.90
1225;DHT22;602;48.000;7.840;2023-03-20T07:58:22;11.50;99.90
1225;DHT22;602;48.000;7.840;2023-03-20T08:00:49;11.50;99.90
1225;DHT22;602;48.000;7.840;2023-03-20T08:03:16;11.40;99.90
1225;DHT22;602;48.000;7.840;2023-03-20T08:05:43;11.40;99.90
1225;DHT22;602;48.000;7.840;2023-03-20T08:08:10;11.40;99.90
1225;DHT22;602;48.000;7.840;2023-03-20T08:10:37;11.50;99.90
1225;DHT22;602;48.000;7.840;2023-03-20T08:13:05;11.50;99.90
1225;DHT22;602;48.000;7.840;2023-03-20T08:15:32;11.50;99.90
1225;DHT22;602;48.000;7.840;2023-03-20T08:17:59;11.50;99.90
1225;DHT22;602;48.000;7.840;2023-03-20T08:20:26;11.50;99.90
1225;DHT22;602;48.000;7.840;2023-03-20T08:22:52;11.50;99.90
1225;DHT22;602;48.000;7.840;2023-03-20T08:25:19;11.60;99.90
1225;DHT22;602;48.000;7.840;2023-03-20T08:27:47;11.70;99.90
1225;DHT22;602;48.000;7.840;2023-03-20T08:30:16;11.70;99.90
1225;DHT22;602;48.000;7.840;2023-03-20T08:32:43;11.90;99.90
1225;DHT22;602;48.000;7.840;2023-03-20T08:35:10;11.90;99.90
1225;DHT22;602;48.000;7.840;2023-03-20T08:37:37;12.00;99.90
1225;DHT22;602;48.000;7.840;2023-03-20T08:40:05;11.90;99.90
1225;DHT22;602;48.000;7.840;2023-03-20T08:42:32;12.00;99.90
1225;DHT22;602;48.000;7.840;2023-03-20T08:44:59;12.10;99.90
1225;DHT22;602;48.000;7.840;2023-03-20T08:47:27;12.10;99.90
1225;DHT22;602;48.000;7.840;2023-03-20T08:49:54;12.10;99.90
1225;DHT22;602;48.000;7.840;2023-03-20T08:52:21;12.10;99.90
1225;DHT22;602;48.000;7.840;2023-03-20T08:54:47;12.20;99.90
1225;DHT22;602;48.000;7.840;2023-03-20T08:57:14;12.30;99.90
1225;DHT22;602;48.000;7.840;2023-03-20T08:59:41;12.40;99.90
1225;DHT22;602;48.000;7.840;2023-03-20T09:02:09;12.60;99.90
1225;DHT22;602;48.000;7.840;2023-03-20T09:04:38;12.80;99.90
1225;DHT22;602;48.000;7.840;2023-03-20T09:07:05;13.00;99.90
1225;DHT22;602;48.000;7.840;2023-03-20T09:09:32;13.20;99.90
1225;DHT22;602;48.000;7.840;2023-03-20T09:11:59;13.30;99.90
1225;DHT22;602;48.000;7.840;2023-03-20T09:14:27;13.40;99.90
1225;DHT22;602;48.000;7.840;2023-03-20T09:16:54;13.60;99.90
1225;DHT22;602;48.000;7.840;2023-03-20T09:19:21;14.00;99.90
1225;DHT22;602;48.000;7.840;2023-03-20T09:21:49;14.20;99.90
1225;DHT22;602;48.000;7.840;2023-03-20T09:24:16;14.40;99.90
1225;DHT22;602;48.000;7.840;2023-03-20T09:26:42;14.40;99.90
1225;DHT22;602;48.000;7.840;2023-03-20T09:29:09;14.60;99.90
1225;DHT22;602;48.000;7.840;2023-03-20T09:31:36;14.70;99.90
1225;DHT22;602;48.000;7.840;2023-03-20T09:34:03;14.70;99.90
1225;DHT22;602;48.000;7.840;2023-03-20T09:36:30;14.70;99.90
1225;DHT22;602;48.000;7.840;2023-03-20T09:38:59;14.60;99.90
1225;DHT22;602;48.000;7.840;2023-03-20T09:41:26;14.70;99.90
1225;DHT22;602;48.000;7.840;2023-03-20T09:44:09;14.70;99.90
1225;DHT22;602;48.000;7.840;2023-03-20T09:46:56;14.80;99.90
1225;DHT22;602;48.000;7.840;2023-03-20T09:49:39;14.90;99.90
1225;DHT22;602;48.000;7.840;2023-03-20T09:52:17;15.00;99.90
1225;DHT22;602;48.000;7.840;2023-03-20T09:54:49;15.00;99.90
1225;DHT22;602;48.000;7.840;2023-03-20T09:57:22;15.00;99.90
1225;DHT22;602;48.000;7.840;2023-03-20T09:59:54;15.00;99.90
1225;DHT22;602;48.000;7.840;2023-03-20T10:02:28;15.10;99.90
1225;DHT22;602;48.000;7.840;2023-03-20T10:04:58;15.20;99.90
1225;DHT22;602;48.000;7.840;2023-03-20T10:07:25;15.30;99.90
1225;DHT22;602;48.000;7.840;2023-03-20T10:09:53;15.20;99.90
1225;DHT22;602;48.000;7.840;2023-03-20T10:12:34;15.20;99.90
1225;DHT22;602;48.000;7.840;2023-03-20T10:15:06;15.30;99.90
1225;DHT22;602;48.000;7.840;2023-03-20T10:17:46;15.40;99.90
1225;DHT22;602;48.000;7.840;2023-03-20T10:20:24;15.30;99.90
1225;DHT22;602;48.000;7.840;2023-03-20T10:22:54;15.20;99.90
1225;DHT22;602;48.000;7.840;2023-03-20T10:25:29;15.30;99.90
1225;DHT22;602;48.000;7.840;2023-03-20T10:27:58;15.50;99.90
1225;DHT22;602;48.000;7.840;2023-03-20T10:30:36;15.50;99.90
1225;DHT22;602;48.000;7.840;2023-03-20T10:33:23;15.60;99.90
1225;DHT22;602;48.000;7.840;2023-03-20T10:36:02;15.60;99.90
1225;DHT22;602;48.000;7.840;2023-03-20T10:38:37;15.70;99.90
1225;DHT22;602;48.000;7.840;2023-03-20T10:41:12;15.90;99.90
1225;DHT22;602;48.000;7.840;2023-03-20T10:43:41;16.00;99.90
1225;DHT22;602;48.000;7.840;2023-03-20T10:46:11;15.90;99.90
1225;DHT22;602;48.000;7.840;2023-03-20T10:48:43;16.00;99.90
1225;DHT22;602;48.000;7.840;2023-03-20T10:51:14;16.00;99.90
1225;DHT22;602;48.000;7.840;2023-03-20T10:53:45;16.00;99.90
1225;DHT22;602;48.000;7.840;2023-03-20T10:56:16;16.00;99.90
1225;DHT22;602;48.000;7.840;2023-03-20T10:58:48;16.10;99.90
1225;DHT22;602;48.000;7.840;2023-03-20T11:01:16;16.10;99.90
1225;DHT22;602;48.000;7.840;2023-03-20T11:03:45;16.10;99.90
1225;DHT22;602;48.000;7.840;2023-03-20T11:06:16;15.90;99.90
1225;DHT22;602;48.000;7.840;2023-03-20T11:08:48;15.90;99.90
1225;DHT22;602;48.000;7.840;2023-03-20T11:11:23;15.90;99.90
1225;DHT22;602;48.000;7.840;2023-03-20T11:13:50;15.90;99.90
1225;DHT22;602;48.000;7.840;2023-03-20T11:16:20;15.90;99.90
1225;DHT22;602;48.000;7.840;2023-03-20T11:18:48;15.90;99.90
1225;DHT22;602;48.000;7.840;2023-03-20T11:21:18;16.00;99.90
1225;DHT22;602;48.000;7.840;2023-03-20T11:23:46;16.00;99.90
1225;DHT22;602;48.000;7.840;2023-03-20T11:26:15;16.30;99.90
1225;DHT22;602;48.000;7.840;2023-03-20T11:28:49;16.60;99.90
1225;DHT22;602;48.000;7.840;2023-03-20T11:31:19;16.70;99.90
1225;DHT22;602;48.000;7.840;2023-03-20T11:33:51;16.90;99.90
1225;DHT22;602;48.000;7.840;2023-03-20T11:36:22;17.10;99.90
1225;DHT22;602;48.000;7.840;2023-03-20T11:38:50;17.10;99.90
1225;DHT22;602;48.000;7.840;2023-03-20T11:41:22;17.00;99.90
1225;DHT22;602;48.000;7.840;2023-03-20T11:43:50;16.90;99.90
1225;DHT22;602;48.000;7.840;2023-03-20T11:46:19;16.90;99.90
1225;DHT22;602;48.000;7.840;2023-03-20T11:49:01;16.80;99.90
1225;DHT22;602;48.000;7.840;2023-03-20T11:51:29;16.60;99.90
1225;DHT22;602;48.000;7.840;2023-03-20T11:54:00;16.60;99.90
1225;DHT22;602;48.000;7.840;2023-03-20T11:56:29;16.70;99.90
1225;DHT22;602;48.000;7.840;2023-03-20T11:59:01;16.70;99.90
1225;DHT22;602;48.000;7.840;2023-03-20T12:01:37;16.70;99.90
1225;DHT22;602;48.000;7.840;2023-03-20T12:04:08;16.60;99.90
1225;DHT22;602;48.000;7.840;2023-03-20T12:06:41;16.60;99.90
1225;DHT22;602;48.000;7.840;2023-03-20T12:09:17;16.70;99.90
1225;DHT22;602;48.000;7.840;2023-03-20T12:11:51;16.70;99.90
1225;DHT22;602;48.000;7.840;2023-03-20T12:14:28;16.70;99.90
1225;DHT22;602;48.000;7.840;2023-03-20T12:17:21;16.70;99.90
1225;DHT22;602;48.000;7.840;2023-03-20T12:19:52;16.70;99.90
1225;DHT22;602;48.000;7.840;2023-03-20T12:22:23;16.70;99.90
1225;DHT22;602;48.000;7.840;2023-03-20T12:24:57;16.70;99.90
1225;DHT22;602;48.000;7.840;2023-03-20T12:27:28;16.60;99.90
1225;DHT22;602;48.000;7.840;2023-03-20T12:30:03;16.50;99.90
1225;DHT22;602;48.000;7.840;2023-03-20T12:32:35;16.40;99.90
1225;DHT22;602;48.000;7.840;2023-03-20T12:35:11;16.50;99.90
1225;DHT22;602;48.000;7.840;2023-03-20T12:37:38;16.60;99.90
1225;DHT22;602;48.000;7.840;2023-03-20T12:40:12;16.70;99.90
1225;DHT22;602;48.000;7.840;2023-03-20T12:42:49;16.60;99.90
1225;DHT22;602;48.000;7.840;2023-03-20T12:45:28;16.60;99.90
1225;DHT22;602;48.000;7.840;2023-03-20T12:48:05;16.70;99.90
1225;DHT22;602;48.000;7.840;2023-03-20T12:50:38;16.70;99.90
1225;DHT22;602;48.000;7.840;2023-03-20T12:53:15;16.80;99.90
1225;DHT22;602;48.000;7.840;2023-03-20T12:55:55;17.00;99.90
1225;DHT22;602;48.000;7.840;2023-03-20T12:58:33;17.10;99.90
1225;DHT22;602;48.000;7.840;2023-03-20T13:01:07;17.10;99.90
1225;DHT22;602;48.000;7.840;2023-03-20T13:03:48;17.20;99.90
1225;DHT22;602;48.000;7.840;2023-03-20T13:06:21;17.30;99.90
1225;DHT22;602;48.000;7.840;2023-03-20T13:11:50;17.40;99.90
1225;DHT22;602;48.000;7.840;2023-03-20T13:14:26;17.40;99.90
1225;DHT22;602;48.000;7.840;2023-03-20T13:17:00;17.50;99.90
1225;DHT22;602;48.000;7.840;2023-03-20T13:19:34;17.40;99.90
1225;DHT22;602;48.000;7.840;2023-03-20T13:22:06;17.50;99.90
1225;DHT22;602;48.000;7.840;2023-03-20T13:24:40;17.60;99.90
1225;DHT22;602;48.000;7.840;2023-03-20T13:27:19;17.70;99.90
1225;DHT22;602;48.000;7.840;2023-03-20T13:29:55;17.70;99.90
1225;DHT22;602;48.000;7.840;2023-03-20T13:32:38;17.80;99.90
1225;DHT22;602;48.000;7.840;2023-03-20T13:35:19;17.70;99.90
1225;DHT22;602;48.000;7.840;2023-03-20T13:37:50;17.60;99.90
1225;DHT22;602;48.000;7.840;2023-03-20T13:40:22;17.60;99.90
1225;DHT22;602;48.000;7.840;2023-03-20T13:42:53;17.60;99.90
1225;DHT22;602;48.000;7.840;2023-03-20T13:45:33;17.40;99.90
1225;DHT22;602;48.000;7.840;2023-03-20T13:48:07;17.40;99.90
1225;DHT22;602;48.000;7.840;2023-03-20T13:50:43;17.40;99.90
1225;DHT22;602;48.000;7.840;2023-03-20T13:53:21;17.40;99.90
1225;DHT22;602;48.000;7.840;2023-03-20T13:55:54;17.40;99.90
1225;DHT22;602;48.000;7.840;2023-03-20T13:58:45;17.40;99.90
1225;DHT22;602;48.000;7.840;2023-03-20T14:01:19;17.30;99.90
1225;DHT22;602;48.000;7.840;2023-03-20T14:03:48;17.20;99.90
1225;DHT22;602;48.000;7.840;2023-03-20T14:06:24;17.40;99.90
1225;DHT22;602;48.000;7.840;2023-03-20T14:09:24;17.40;99.90
1225;DHT22;602;48.000;7.840;2023-03-20T14:11:52;17.40;99.90
1225;DHT22;602;48.000;7.840;2023-03-20T14:14:25;17.50;99.90
1225;DHT22;602;48.000;7.840;2023-03-20T14:17:02;17.40;99.90
1225;DHT22;602;48.000;7.840;2023-03-20T14:19:30;17.40;99.90
1225;DHT22;602;48.000;7.840;2023-03-20T14:21:57;17.30;99.90
1225;DHT22;602;48.000;7.840;2023-03-20T14:24:26;17.30;99.90
1225;DHT22;602;48.000;7.840;2023-03-20T14:26:55;17.20;99.90
1225;DHT22;602;48.000;7.840;2023-03-20T14:29:32;17.20;99.90
1225;DHT22;602;48.000;7.840;2023-03-20T14:32:20;17.30;99.90
1225;DHT22;602;48.000;7.840;2023-03-20T14:34:51;17.30;99.90
1225;DHT22;602;48.000;7.840;2023-03-20T14:37:33;17.30;99.90
1225;DHT22;602;48.000;7.840;2023-03-20T14:40:09;17.30;99.90
1225;DHT22;602;48.000;7.840;2023-03-20T14:42:47;17.40;99.90
1225;DHT22;602;48.000;7.840;2023-03-20T14:45:40;17.50;99.90
1225;DHT22;602;48.000;7.840;2023-03-20T14:48:26;17.40;99.90
1225;DHT22;602;48.000;7.840;2023-03-20T14:51:06;17.50;99.90
1225;DHT22;602;48.000;7.840;2023-03-20T14:53:34;17.50;99.90
1225;DHT22;602;48.000;7.840;2023-03-20T14:56:07;17.50;99.90
1225;DHT22;602;48.000;7.840;2023-03-20T14:58:50;17.50;99.90
1225;DHT22;602;48.000;7.840;2023-03-20T15:01:25;17.40;99.90
1225;DHT22;602;48.000;7.840;2023-03-20T15:03:56;17.40;99.90
1225;DHT22;602;48.000;7.840;2023-03-20T15:06:26;17.40;99.90
1225;DHT22;602;48.000;7.840;2023-03-20T15:08:56;17.30;99.90
1225;DHT22;602;48.000;7.840;2023-03-20T15:11:25;17.30;99.90
1225;DHT22;602;48.000;7.840;2023-03-20T15:13:53;17.30;99.90
1225;DHT22;602;48.000;7.840;2023-03-20T15:16:28;17.10;99.90
1225;DHT22;602;48.000;7.840;2023-03-20T15:18:55;17.00;99.90
1225;DHT22;602;48.000;7.840;2023-03-20T15:21:30;16.90;99.90
1225;DHT22;602;48.000;7.840;2023-03-20T15:23:59;16.90;99.90
1225;DHT22;602;48.000;7.840;2023-03-20T15:26:31;17.00;99.90
1225;DHT22;602;48.000;7.840;2023-03-20T15:29:01;17.10;99.90
1225;DHT22;602;48.000;7.840;2023-03-20T15:31:30;17.00;99.90
1225;DHT22;602;48.000;7.840;2023-03-20T15:33:58;16.90;99.90
1225;DHT22;602;48.000;7.840;2023-03-20T15:36:28;16.80;99.90
1225;DHT22;602;48.000;7.840;2023-03-20T15:39:05;16.90;99.90
1225;DHT22;602;48.000;7.840;2023-03-20T15:41:34;16.90;99.90
1225;DHT22;602;48.000;7.840;2023-03-20T15:44:07;16.90;99.90
1225;DHT22;602;48.000;7.840;2023-03-20T15:46:38;16.90;99.90
1225;DHT22;602;48.000;7.840;2023-03-20T15:49:05;16.90;99.90
1225;DHT22;602;48.000;7.840;2023-03-20T15:51:34;16.90;99.90
1225;DHT22;602;48.000;7.840;2023-03-20T15:54:01;17.00;99.90
1225;DHT22;602;48.000;7.840;2023-03-20T15:56:34;16.90;99.90
1225;DHT22;602;48.000;7.840;2023-03-20T15:59:09;16.90;99.90
1225;DHT22;602;48.000;7.840;2023-03-20T16:01:38;16.90;99.90
1225;DHT22;602;48.000;7.840;2023-03-20T16:04:05;16.90;99.90
1225;DHT22;602;48.000;7.840;2023-03-20T16:06:34;16.80;99.90
1225;DHT22;602;48.000;7.840;2023-03-20T16:09:11;16.80;99.90
1225;DHT22;602;48.000;7.840;2023-03-20T16:11:40;16.70;99.90
1225;DHT22;602;48.000;7.840;2023-03-20T16:14:13;16.80;99.90
1225;DHT22;602;48.000;7.840;2023-03-20T16:16:41;16.70;99.90
1225;DHT22;602;48.000;7.840;2023-03-20T16:19:11;16.70;99.90
1225;DHT22;602;48.000;7.840;2023-03-20T16:21:43;16.70;99.90
1225;DHT22;602;48.000;7.840;2023-03-20T16:24:17;16.70;99.90
1225;DHT22;602;48.000;7.840;2023-03-20T16:26:48;16.60;99.90
1225;DHT22;602;48.000;7.840;2023-03-20T16:29:16;16.50;99.90
1225;DHT22;602;48.000;7.840;2023-03-20T16:31:47;16.50;99.90
1225;DHT22;602;48.000;7.840;2023-03-20T16:34:18;16.50;99.90
1225;DHT22;602;48.000;7.840;2023-03-20T16:36:55;16.60;99.90
1225;DHT22;602;48.000;7.840;2023-03-20T16:39:25;16.60;99.90
1225;DHT22;602;48.000;7.840;2023-03-20T16:42:01;16.60;99.90
1225;DHT22;602;48.000;7.840;2023-03-20T16:44:31;16.50;99.90
1225;DHT22;602;48.000;7.840;2023-03-20T16:47:15;16.50;99.90
1225;DHT22;602;48.000;7.840;2023-03-20T16:50:10;16.50;99.90